createdAt,value
2023-04-12T00:00:51.003Z,7.22
2023-04-12T00:02:59.764Z,6.70
2023-04-12T00:05:13.745Z,4.82
2023-04-12T00:07:21.475Z,5.65
2023-04-12T00:09:30.946Z,5.72
2023-04-12T00:11:37.225Z,6.78
2023-04-12T00:13:44.907Z,6.60
2023-04-12T00:15:53.269Z,8.27
2023-04-12T00:18:00.201Z,4.65
2023-04-12T00:20:09.929Z,6.10
2023-04-12T00:22:19.040Z,6.97
2023-04-12T00:24:33.462Z,7.60
2023-04-12T00:26:41.081Z,7.90
2023-04-12T00:28:46.555Z,7.40
2023-04-12T00:30:59.594Z,7.07
2023-04-12T00:33:05.763Z,5.68
2023-04-12T00:35:19.539Z,4.35
2023-04-12T00:37:27.277Z,6.22
2023-04-12T00:39:32.344Z,4.75
2023-04-12T00:41:40.446Z,8.57
2023-04-12T00:43:47.465Z,6.10
2023-04-12T00:45:59.395Z,8.70
2023-04-12T00:48:06.001Z,9.05
2023-04-12T00:50:13.729Z,5.93
2023-04-12T00:52:38.827Z,5.65
2023-04-12T00:54:45.148Z,5.18
2023-04-12T00:56:52.765Z,7.10
2023-04-12T00:59:02.161Z,5.05
2023-04-12T01:01:11.080Z,5.68
2023-04-12T01:03:24.600Z,9.38
2023-04-12T01:05:41.402Z,7.13
2023-04-12T01:07:57.605Z,9.93
2023-04-12T01:10:16.236Z,7.15
2023-04-12T01:12:46.942Z,6.85
2023-04-12T01:15:14.269Z,4.80
2023-04-12T01:17:40.288Z,6.43
2023-04-12T01:20:13.690Z,6.32
2023-04-12T01:22:40.196Z,9.73
2023-04-12T01:25:06.491Z,6.60
2023-04-12T01:27:37.256Z,4.32
2023-04-12T01:29:50.012Z,4.80
2023-04-12T01:32:02.440Z,5.25
2023-04-12T01:34:20.110Z,10.75
2023-04-12T01:36:28.138Z,6.15
2023-04-12T01:38:35.038Z,7.18
2023-04-12T01:40:47.189Z,11.13
2023-04-12T01:43:12.640Z,8.43
2023-04-12T01:45:25.541Z,7.72
2023-04-12T01:47:38.902Z,8.13
2023-04-12T01:50:02.201Z,7.65
2023-04-12T01:52:23.410Z,11.65
2023-04-12T01:54:46.177Z,5.55
2023-04-12T01:57:03.985Z,10.02
2023-04-12T01:59:15.063Z,5.63
2023-04-12T02:01:25.363Z,6.50
2023-04-12T02:03:32.121Z,6.95
2023-04-12T02:05:42.254Z,7.72
2023-04-12T02:07:52.830Z,8.57
2023-04-12T02:10:01.399Z,10.88
2023-04-12T02:12:26.952Z,9.82
2023-04-12T02:14:38.615Z,11.32
2023-04-12T02:16:46.222Z,9.75
2023-04-12T02:18:54.341Z,6.40
2023-04-12T02:23:06.891Z,7.97
2023-04-12T02:25:21.743Z,7.05
2023-04-12T02:27:28.826Z,5.90
2023-04-12T02:29:39.804Z,11.02
2023-04-12T02:31:46.599Z,10.68
2023-04-12T02:34:17.781Z,7.68
2023-04-12T02:36:30.158Z,10.50
2023-04-12T02:38:37.754Z,9.50
2023-04-12T02:40:45.346Z,10.00
2023-04-12T02:42:57.526Z,6.72
2023-04-12T02:45:14.004Z,11.70
2023-04-12T02:47:23.408Z,10.88
2023-04-12T02:49:28.964Z,12.25
2023-04-12T02:51:35.432Z,9.40
2023-04-12T02:53:43.760Z,6.82
2023-04-12T02:55:54.183Z,10.25
2023-04-12T02:58:03.007Z,11.02
2023-04-12T03:00:19.281Z,7.10
2023-04-12T03:02:33.227Z,7.38
2023-04-12T03:04:47.415Z,5.13
2023-04-12T03:07:01.796Z,11.75
2023-04-12T03:09:38.763Z,8.20
2023-04-12T03:11:45.521Z,8.35
2023-04-12T03:13:55.653Z,7.78
2023-04-12T03:16:24.068Z,6.72
2023-04-12T03:18:36.072Z,10.43
2023-04-12T03:20:46.958Z,11.07
2023-04-12T03:22:53.867Z,8.23
2023-04-12T03:25:10.413Z,7.75
2023-04-12T03:27:23.182Z,6.10
2023-04-12T03:29:31.317Z,7.88
2023-04-12T03:31:41.307Z,11.07
2023-04-12T03:33:47.465Z,8.13
2023-04-12T03:36:01.837Z,5.97
2023-04-12T03:38:09.698Z,8.23
2023-04-12T03:40:20.376Z,9.07
2023-04-12T03:42:34.389Z,10.02
2023-04-12T03:44:54.288Z,10.35
2023-04-12T03:47:04.440Z,10.00
2023-04-12T03:49:16.983Z,9.20
2023-04-12T03:51:28.636Z,7.70
2023-04-12T03:53:38.424Z,10.35
2023-04-12T03:55:46.349Z,6.72
2023-04-12T03:57:51.959Z,10.07
2023-04-12T04:00:02.926Z,10.10
2023-04-12T04:02:34.902Z,8.63
2023-04-12T04:04:43.782Z,6.93
2023-04-12T04:06:54.826Z,7.32
2023-04-12T04:09:02.586Z,9.65
2023-04-12T04:11:17.514Z,10.07
2023-04-12T04:13:28.406Z,5.43
2023-04-12T04:15:39.607Z,9.52
2023-04-12T04:17:50.031Z,8.02
2023-04-12T04:19:59.599Z,7.38
2023-04-12T04:22:04.864Z,8.53
2023-04-12T04:24:18.937Z,6.75
2023-04-12T04:26:40.689Z,7.45
2023-04-12T04:28:59.230Z,9.73
2023-04-12T04:31:10.684Z,11.63
2023-04-12T04:33:21.727Z,6.10
2023-04-12T04:35:31.718Z,9.05
2023-04-12T04:38:05.801Z,4.82
2023-04-12T04:40:15.216Z,5.32
2023-04-12T04:42:21.694Z,7.93
2023-04-12T04:44:38.647Z,11.05
2023-04-12T04:46:51.778Z,6.25
2023-04-12T04:49:00.315Z,4.70
2023-04-12T04:51:08.568Z,8.15
2023-04-12T04:53:13.954Z,6.50
2023-04-12T04:55:27.457Z,5.22
2023-04-12T04:57:35.775Z,9.55
2023-04-12T04:59:42.957Z,9.18
2023-04-12T05:01:54.305Z,4.63
2023-04-12T05:04:10.012Z,7.60
2023-04-12T05:06:17.929Z,5.15
2023-04-12T05:08:28.837Z,6.07
2023-04-12T05:10:58.286Z,7.90
2023-04-12T05:13:11.231Z,4.72
2023-04-12T05:15:28.027Z,4.75
2023-04-12T05:17:37.772Z,6.00
2023-04-12T05:19:46.695Z,6.25
2023-04-12T05:21:59.124Z,8.38
2023-04-12T05:24:12.314Z,5.53
2023-04-12T05:26:21.743Z,9.55
2023-04-12T05:28:32.958Z,7.95
2023-04-12T05:30:41.083Z,7.30
2023-04-12T05:32:48.385Z,10.55
2023-04-12T05:35:01.893Z,7.47
2023-04-12T05:37:08.470Z,9.05
2023-04-12T05:39:20.824Z,7.78
2023-04-12T05:41:29.953Z,5.88
2023-04-12T05:43:37.922Z,9.15
2023-04-12T05:45:46.242Z,9.23
2023-04-12T05:47:51.923Z,10.60
2023-04-12T05:50:10.651Z,7.43
2023-04-12T05:52:16.901Z,5.28
2023-04-12T05:54:34.377Z,4.90
2023-04-12T05:56:40.591Z,7.15
2023-04-12T05:58:49.832Z,7.57
2023-04-12T06:00:56.853Z,4.60
2023-04-12T06:03:05.401Z,3.45
2023-04-12T06:05:19.800Z,4.60
2023-04-12T06:07:26.506Z,5.22
2023-04-12T06:09:36.565Z,6.10
2023-04-12T06:11:44.141Z,7.68
2023-04-12T06:13:58.228Z,6.32
2023-04-12T06:16:07.134Z,5.22
2023-04-12T06:18:16.499Z,7.30
2023-04-12T06:20:28.595Z,4.75
2023-04-12T06:22:39.241Z,4.85
2023-04-12T06:24:46.081Z,4.80
2023-04-12T06:26:52.630Z,5.75
2023-04-12T06:29:02.205Z,4.85
2023-04-12T06:31:10.632Z,4.60
2023-04-12T06:33:24.524Z,3.45
2023-04-12T06:35:47.236Z,4.68
2023-04-12T06:37:55.486Z,5.10
2023-04-12T06:40:03.881Z,3.05
2023-04-12T06:42:14.488Z,3.25
2023-04-12T06:44:27.366Z,7.00
2023-04-12T06:46:35.058Z,4.03
2023-04-12T06:48:42.686Z,3.90
2023-04-12T06:50:54.551Z,3.95
2023-04-12T06:53:00.594Z,7.32
2023-04-12T06:55:13.849Z,3.38
2023-04-12T06:57:24.664Z,2.42
2023-04-12T06:59:32.371Z,4.05
2023-04-12T07:01:43.539Z,3.60
2023-04-12T07:03:52.305Z,2.50
2023-04-12T07:06:17.272Z,3.92
2023-04-12T07:08:31.283Z,3.67
2023-04-12T07:10:48.102Z,4.47
2023-04-12T07:12:57.244Z,8.27
2023-04-12T07:15:14.308Z,4.20
2023-04-12T07:17:24.004Z,2.70
2023-04-12T07:19:33.274Z,2.72
2023-04-12T07:21:41.603Z,3.00
2023-04-12T07:23:51.311Z,3.28
2023-04-12T07:25:56.791Z,6.30
2023-04-12T07:28:08.706Z,3.20
2023-04-12T07:30:16.780Z,3.35
2023-04-12T07:32:23.858Z,3.35
2023-04-12T07:34:36.897Z,1.75
2023-04-12T07:36:45.156Z,2.83
2023-04-12T07:38:55.843Z,3.38
2023-04-12T07:41:04.560Z,2.42
2023-04-12T07:43:12.476Z,2.20
2023-04-12T07:45:30.207Z,2.15
2023-04-12T07:49:47.942Z,2.28
2023-04-12T07:52:00.779Z,2.20
2023-04-12T07:54:16.046Z,2.92
2023-04-12T07:56:32.666Z,2.63
2023-04-12T07:58:41.173Z,3.20
2023-04-12T08:00:48.955Z,2.53
2023-04-12T08:03:01.296Z,1.90
2023-04-12T08:05:14.048Z,1.85
2023-04-12T08:07:30.181Z,2.92
2023-04-12T08:09:39.772Z,2.92
2023-04-12T08:11:45.641Z,2.92
2023-04-12T08:14:15.481Z,1.77
2023-04-12T08:16:25.975Z,2.38
2023-04-12T08:18:33.479Z,2.70
2023-04-12T08:20:44.389Z,1.98
2023-04-12T08:22:57.673Z,2.38
2023-04-12T08:25:02.709Z,3.00
2023-04-12T08:27:07.789Z,2.38
2023-04-12T08:29:14.629Z,2.25
2023-04-12T08:31:23.694Z,2.17
2023-04-12T08:33:35.965Z,1.55
2023-04-12T08:35:41.178Z,2.20
2023-04-12T08:37:58.474Z,2.80
2023-04-12T08:40:09.634Z,1.58
2023-04-12T08:42:16.829Z,1.15
2023-04-12T08:44:39.890Z,5.68
2023-04-12T08:46:52.435Z,3.28
2023-04-12T08:49:01.751Z,2.35
2023-04-12T08:51:08.958Z,1.23
2023-04-12T08:53:20.080Z,3.22
2023-04-12T08:55:34.561Z,1.65
2023-04-12T08:57:44.793Z,2.03
2023-04-12T08:59:53.246Z,1.23
2023-04-12T09:02:04.589Z,2.20
2023-04-12T09:04:18.432Z,2.30
2023-04-12T09:06:30.539Z,1.70
2023-04-12T09:08:55.807Z,1.98
2023-04-12T09:11:12.452Z,1.27
2023-04-12T09:13:39.481Z,1.80
2023-04-12T09:16:00.834Z,1.70
2023-04-12T09:18:11.775Z,1.30
2023-04-12T09:20:29.614Z,3.33
2023-04-12T09:22:40.151Z,0.90
2023-04-12T09:25:01.138Z,1.60
2023-04-12T09:27:19.042Z,2.35
2023-04-12T09:29:29.736Z,2.42
2023-04-12T09:31:36.335Z,1.63
2023-04-12T09:33:48.502Z,1.38
2023-04-12T09:36:02.576Z,2.10
2023-04-12T09:38:13.965Z,3.33
2023-04-12T09:40:36.537Z,4.35
2023-04-12T09:42:56.420Z,1.80
2023-04-12T09:45:29.030Z,1.88
2023-04-12T09:47:48.244Z,2.05
2023-04-12T09:49:54.608Z,2.10
2023-04-12T09:52:01.713Z,3.08
2023-04-12T09:54:19.242Z,2.28
2023-04-12T09:56:40.134Z,1.10
2023-04-12T09:58:51.185Z,1.40
2023-04-12T10:00:59.779Z,2.30
2023-04-12T10:03:07.496Z,2.53
2023-04-12T10:05:21.954Z,0.98
2023-04-12T10:07:29.490Z,5.70
2023-04-12T10:09:41.640Z,2.40
2023-04-12T10:11:54.170Z,1.13
2023-04-12T10:14:07.265Z,1.25
2023-04-12T10:16:14.632Z,2.88
2023-04-12T10:18:22.015Z,1.83
2023-04-12T10:20:30.244Z,1.08
2023-04-12T10:22:36.190Z,1.38
2023-04-12T10:24:43.817Z,2.10
2023-04-12T10:26:54.109Z,0.77
2023-04-12T10:29:44.443Z,1.48
2023-04-12T10:31:50.917Z,1.48
2023-04-12T10:34:04.587Z,1.10
2023-04-12T10:36:13.218Z,1.65
2023-04-12T10:38:19.583Z,1.17
2023-04-12T10:40:28.687Z,1.10
2023-04-12T10:42:36.456Z,2.15
2023-04-12T10:44:41.577Z,2.15
2023-04-12T10:46:54.465Z,1.02
2023-04-12T10:49:10.757Z,1.50
2023-04-12T10:51:23.632Z,2.80
2023-04-12T10:53:29.211Z,1.20
2023-04-12T10:55:38.582Z,1.93
2023-04-12T10:57:49.802Z,1.42
2023-04-12T11:00:01.239Z,1.20
2023-04-12T11:02:16.781Z,1.38
2023-04-12T11:04:31.683Z,0.82
2023-04-12T11:07:07.469Z,1.48
2023-04-12T11:12:19.840Z,1.58
2023-04-12T11:14:44.811Z,1.50
2023-04-12T11:17:37.644Z,2.08
2023-04-12T11:19:45.757Z,1.05
2023-04-12T11:21:53.224Z,0.93
2023-04-12T11:24:15.653Z,1.23
2023-04-12T11:26:25.740Z,1.42
2023-04-12T11:28:38.094Z,0.80
2023-04-12T11:31:06.620Z,1.05
2023-04-12T11:33:15.288Z,0.52
2023-04-12T11:35:33.555Z,1.15
2023-04-12T11:37:43.565Z,1.40
2023-04-12T11:39:54.426Z,1.30
2023-04-12T11:42:03.364Z,2.85
2023-04-12T11:44:21.323Z,2.58
2023-04-12T11:46:46.695Z,0.80
2023-04-12T11:48:51.809Z,1.95
2023-04-12T11:51:10.544Z,2.45
2023-04-12T11:53:20.595Z,1.17
2023-04-12T11:55:32.326Z,1.17
2023-04-12T11:57:40.781Z,0.80
2023-04-12T12:00:08.089Z,1.10
2023-04-12T12:02:27.957Z,1.35
2023-04-12T12:04:42.165Z,1.17
2023-04-12T12:06:48.456Z,0.70
2023-04-12T12:08:58.370Z,3.25
2023-04-12T12:11:09.396Z,1.60
2023-04-12T12:13:17.573Z,3.50
2023-04-12T12:15:29.919Z,1.30
2023-04-12T12:17:40.542Z,1.35
2023-04-12T12:19:49.514Z,2.30
2023-04-12T12:21:56.190Z,1.65
2023-04-12T12:24:05.984Z,1.60
2023-04-12T12:26:18.840Z,0.75
2023-04-12T12:28:27.231Z,1.70
2023-04-12T12:30:34.166Z,0.57
2023-04-12T12:32:53.826Z,1.58
2023-04-12T12:35:03.230Z,0.80
2023-04-12T12:37:20.397Z,2.15
2023-04-12T12:39:25.448Z,1.83
2023-04-12T12:41:36.690Z,1.10
2023-04-12T12:43:47.622Z,1.95
2023-04-12T12:45:53.705Z,0.77
2023-04-12T12:48:08.124Z,2.00
2023-04-12T12:50:17.822Z,0.82
2023-04-12T12:52:23.268Z,1.23
2023-04-12T12:54:41.165Z,1.55
2023-04-12T12:56:48.085Z,1.05
2023-04-12T12:58:57.951Z,1.92
2023-04-12T13:01:03.865Z,2.25
2023-04-12T13:03:13.585Z,4.22
2023-04-12T13:05:22.496Z,3.20
2023-04-12T13:07:31.762Z,2.40
2023-04-12T13:09:59.796Z,2.05
2023-04-12T13:12:08.494Z,1.50
2023-04-12T13:14:20.053Z,2.60
2023-04-12T13:16:33.736Z,4.35
2023-04-12T13:18:41.500Z,3.65
2023-04-12T13:20:49.604Z,3.25
2023-04-12T13:22:56.480Z,2.72
2023-04-12T13:25:09.368Z,5.13
2023-04-12T13:27:17.961Z,2.10
2023-04-12T13:29:23.432Z,1.65
2023-04-12T13:31:30.602Z,2.60
2023-04-12T13:33:36.169Z,3.78
2023-04-12T13:35:46.013Z,2.08
2023-04-12T13:37:51.064Z,2.88
2023-04-12T13:40:09.680Z,1.42
2023-04-12T13:42:17.745Z,2.08
2023-04-12T13:44:27.718Z,3.05
2023-04-12T13:46:33.856Z,1.60
2023-04-12T13:48:39.213Z,3.10
2023-04-12T13:50:50.749Z,3.28
2023-04-12T13:53:02.807Z,1.55
2023-04-12T13:55:16.579Z,3.47
2023-04-12T13:57:27.776Z,2.47
2023-04-12T13:59:36.278Z,2.88
2023-04-12T14:01:43.288Z,2.03
2023-04-12T14:03:55.908Z,2.90
2023-04-12T14:06:07.191Z,1.75
2023-04-12T14:08:14.115Z,2.13
2023-04-12T14:10:22.826Z,2.30
2023-04-12T14:12:31.139Z,2.58
2023-04-12T14:14:38.435Z,2.80
2023-04-12T14:16:45.020Z,4.55
2023-04-12T14:19:04.308Z,3.25
2023-04-12T14:21:13.330Z,3.70
2023-04-12T14:23:19.914Z,2.83
2023-04-12T14:25:44.568Z,2.35
2023-04-12T14:27:49.627Z,3.53
2023-04-12T14:29:57.146Z,4.00
2023-04-12T14:32:03.429Z,4.07
2023-04-12T14:34:14.106Z,4.85
2023-04-12T14:36:23.958Z,3.05
2023-04-12T14:38:31.517Z,4.72
2023-04-12T14:40:39.611Z,3.05
2023-04-12T14:47:04.027Z,3.55
2023-04-12T14:49:09.110Z,3.25
2023-04-12T14:51:22.953Z,3.15
2023-04-12T14:53:32.746Z,2.13
2023-04-12T14:55:42.123Z,2.03
2023-04-12T14:57:47.451Z,2.55
2023-04-12T14:59:55.866Z,2.35
2023-04-12T15:02:04.900Z,1.75
2023-04-12T15:04:20.729Z,1.98
2023-04-12T15:06:27.479Z,2.72
2023-04-12T15:08:41.782Z,2.28
2023-04-12T15:10:47.830Z,1.63
2023-04-12T15:12:53.413Z,1.35
2023-04-12T15:15:05.371Z,1.60
2023-04-12T15:17:14.109Z,2.05
2023-04-12T15:19:28.234Z,1.73
2023-04-12T15:21:35.249Z,4.00
2023-04-12T15:23:45.110Z,4.13
2023-04-12T15:25:52.797Z,1.92
2023-04-12T15:28:01.864Z,3.00
2023-04-12T15:30:14.505Z,1.77
2023-04-12T15:32:19.639Z,1.30
2023-04-12T15:34:36.903Z,2.20
2023-04-12T15:36:44.838Z,1.98
2023-04-12T15:38:55.540Z,2.55
2023-04-12T15:41:05.498Z,2.33
2023-04-12T15:43:10.969Z,2.45
2023-04-12T15:45:36.883Z,3.28
2023-04-12T15:47:43.297Z,1.45
2023-04-12T15:49:50.799Z,1.75
2023-04-12T15:52:01.339Z,1.38
2023-04-12T15:54:16.317Z,2.13
2023-04-12T15:56:24.476Z,1.88
2023-04-12T15:58:34.203Z,2.30
2023-04-12T16:00:44.514Z,1.20
2023-04-12T16:02:53.828Z,2.65
2023-04-12T16:05:21.493Z,1.80
2023-04-12T16:07:30.929Z,2.50
2023-04-12T16:09:51.559Z,2.95
2023-04-12T16:11:57.459Z,1.95
2023-04-12T16:14:09.241Z,2.58
2023-04-12T16:16:18.648Z,1.80
2023-04-12T16:18:24.989Z,1.60
2023-04-12T16:20:33.077Z,1.92
2023-04-12T16:22:38.648Z,3.45
2023-04-12T16:24:52.616Z,2.13
2023-04-12T16:26:58.317Z,1.85
2023-04-12T16:29:08.717Z,1.95
2023-04-12T16:31:16.320Z,4.28
2023-04-12T16:35:34.629Z,2.90
2023-04-12T16:37:40.441Z,1.70
2023-04-12T16:39:50.908Z,1.27
2023-04-12T16:42:02.071Z,0.70
2023-04-12T16:44:16.868Z,2.38
2023-04-12T16:46:26.119Z,1.00
2023-04-12T16:48:31.711Z,3.30
2023-04-12T16:50:38.935Z,2.30
2023-04-12T16:52:44.186Z,2.22
2023-04-12T16:55:00.564Z,2.90
2023-04-12T16:57:06.619Z,3.40
2023-04-12T16:59:15.718Z,2.58
2023-04-12T17:01:21.543Z,3.42
2023-04-12T17:03:28.262Z,2.92
2023-04-12T17:05:35.549Z,1.13
2023-04-12T17:07:43.272Z,2.45
2023-04-12T17:10:00.368Z,3.13
2023-04-12T17:12:05.442Z,2.72
2023-04-12T17:14:23.403Z,1.42
2023-04-12T17:16:37.441Z,0.90
2023-04-12T17:18:43.805Z,0.60
2023-04-12T17:20:54.562Z,1.05
2023-04-12T17:23:02.121Z,0.22
2023-04-12T17:27:20.555Z,0.25
2023-04-12T17:29:29.221Z,0.20
2023-04-12T17:31:40.619Z,1.17
2023-04-12T17:33:46.061Z,0.90
2023-04-12T17:35:53.558Z,1.73
2023-04-12T17:37:59.362Z,1.33
2023-04-12T17:40:20.447Z,1.45
2023-04-12T17:42:26.205Z,0.70
2023-04-12T17:44:33.079Z,0.50
2023-04-12T17:46:38.752Z,0.87
2023-04-12T17:48:46.933Z,2.15
2023-04-12T17:50:55.484Z,0.98
2023-04-12T17:53:02.105Z,1.35
2023-04-12T17:55:16.191Z,1.45
2023-04-12T17:57:24.529Z,1.58
2023-04-12T17:59:30.701Z,1.15
2023-04-12T18:01:47.979Z,2.13
2023-04-12T18:03:57.593Z,2.22
2023-04-12T18:06:04.444Z,2.80
2023-04-12T18:08:10.165Z,3.20
2023-04-12T18:10:21.344Z,4.28
2023-04-12T18:12:31.245Z,0.88
2023-04-12T18:14:37.133Z,0.40
2023-04-12T18:16:51.421Z,1.90
2023-04-12T18:19:01.192Z,1.40
2023-04-12T18:21:07.553Z,1.25
2023-04-12T18:23:14.281Z,0.85
2023-04-12T18:25:28.601Z,1.48
2023-04-12T18:27:39.164Z,1.63
2023-04-12T18:29:48.566Z,6.03
2023-04-12T18:31:53.745Z,1.65
2023-04-12T18:34:14.824Z,2.97
2023-04-12T18:36:19.982Z,3.55
2023-04-12T18:38:32.541Z,4.50
2023-04-12T18:40:40.906Z,6.93
2023-04-12T18:42:52.568Z,6.13
2023-04-12T18:44:59.402Z,4.78
2023-04-12T18:47:06.997Z,7.30
2023-04-12T18:49:14.754Z,5.30
2023-04-12T18:51:20.781Z,4.60
2023-04-12T18:53:26.978Z,7.55
2023-04-12T18:55:41.403Z,5.55
2023-04-12T18:57:49.374Z,7.65
2023-04-12T18:59:55.014Z,6.13
2023-04-12T19:02:00.862Z,4.63
2023-04-12T19:04:15.109Z,6.57
2023-04-12T19:06:22.242Z,7.05
2023-04-12T19:08:29.019Z,5.82
2023-04-12T19:10:34.436Z,7.57
2023-04-12T19:12:40.565Z,6.35
2023-04-12T19:14:50.797Z,4.90
2023-04-12T19:17:01.133Z,6.80
2023-04-12T19:19:10.462Z,5.75
2023-04-12T19:21:17.245Z,5.40
2023-04-12T19:23:25.295Z,3.05
2023-04-12T19:25:35.678Z,5.60
2023-04-12T19:27:43.947Z,3.30
2023-04-12T19:32:06.861Z,4.65
2023-04-12T19:34:27.029Z,31.42
2023-04-12T19:36:33.519Z,15.07
2023-04-12T19:38:41.425Z,3.00
2023-04-12T19:42:55.254Z,4.72
2023-04-12T19:45:10.812Z,4.18
2023-04-12T19:47:16.106Z,3.33
2023-04-12T19:49:27.348Z,3.15
2023-04-12T19:51:34.842Z,2.05
2023-04-12T19:53:42.101Z,4.40
2023-04-12T19:55:48.805Z,2.55
2023-04-12T19:57:54.496Z,7.00
2023-04-12T20:00:19.671Z,2.67
2023-04-12T20:02:27.834Z,3.90
2023-04-12T20:04:33.445Z,6.47
2023-04-12T20:06:38.771Z,3.00
2023-04-12T20:08:45.032Z,5.28
2023-04-12T20:10:52.846Z,3.58
2023-04-12T20:13:15.571Z,3.33
2023-04-12T20:15:33.825Z,4.28
2023-04-12T20:17:41.765Z,6.80
2023-04-12T20:19:52.128Z,3.28
2023-04-12T20:22:01.883Z,2.75
2023-04-12T20:24:16.590Z,3.85
2023-04-12T20:26:23.220Z,2.85
2023-04-12T20:28:34.646Z,3.75
2023-04-12T20:30:45.025Z,5.03
2023-04-12T20:32:54.747Z,7.88
2023-04-12T20:35:06.768Z,5.38
2023-04-12T20:39:36.701Z,7.18
2023-04-12T20:41:50.185Z,5.05
2023-04-12T20:43:55.655Z,4.25
2023-04-12T20:46:08.833Z,3.95
2023-04-12T20:48:16.882Z,7.13
2023-04-12T20:50:23.658Z,6.13
2023-04-12T20:52:33.514Z,5.88
2023-04-12T20:54:48.549Z,5.28
2023-04-12T20:56:56.637Z,7.55
2023-04-12T20:59:04.987Z,4.30
2023-04-12T21:01:15.063Z,2.75
2023-04-12T21:03:28.600Z,4.22
2023-04-12T21:05:36.156Z,6.95
2023-04-12T21:07:43.501Z,5.68
2023-04-12T21:09:54.445Z,15.10
2023-04-12T21:12:02.800Z,2.05
2023-04-12T21:14:18.838Z,5.82
2023-04-12T21:16:27.702Z,5.13
2023-04-12T21:18:37.013Z,3.83
2023-04-12T21:20:53.263Z,4.97
2023-04-12T21:23:01.743Z,4.15
2023-04-12T21:25:10.172Z,4.35
2023-04-12T21:27:15.287Z,3.28
2023-04-12T21:29:20.521Z,5.15
2023-04-12T21:31:32.936Z,5.82
2023-04-12T21:33:39.647Z,9.07
2023-04-12T21:35:47.071Z,6.63
2023-04-12T21:37:54.772Z,7.22
2023-04-12T21:40:16.227Z,4.63
2023-04-12T21:42:29.794Z,9.93
2023-04-12T21:44:37.360Z,7.25
2023-04-12T21:46:47.421Z,7.50
2023-04-12T21:48:55.268Z,7.13
2023-04-12T21:51:07.645Z,6.45
2023-04-12T21:53:15.606Z,4.55
2023-04-12T21:55:31.739Z,5.53
2023-04-12T21:57:38.057Z,6.15
2023-04-12T21:59:43.726Z,4.28
2023-04-12T22:01:54.574Z,4.85
2023-04-12T22:04:06.378Z,7.90
2023-04-12T22:06:12.500Z,12.60
2023-04-12T22:08:24.936Z,12.15
2023-04-12T22:10:34.818Z,12.38
2023-04-12T22:12:41.066Z,8.40
2023-04-12T22:14:50.089Z,10.68
2023-04-12T22:16:59.279Z,11.07
2023-04-12T22:19:07.855Z,7.57
2023-04-12T22:21:17.946Z,7.28
2023-04-12T22:23:25.600Z,4.60
2023-04-12T22:25:36.774Z,6.07
2023-04-12T22:27:46.761Z,7.38
2023-04-12T22:29:52.788Z,7.63
2023-04-12T22:32:00.489Z,7.53
2023-04-12T22:34:16.506Z,8.40
2023-04-12T22:36:29.297Z,7.50
2023-04-12T22:38:40.935Z,8.18
2023-04-12T22:40:47.137Z,8.20
2023-04-12T22:42:52.450Z,11.20
2023-04-12T22:45:04.194Z,4.75
2023-04-12T22:47:25.338Z,9.30
2023-04-12T22:49:30.913Z,10.13
2023-04-12T22:51:41.423Z,6.28
2023-04-12T22:53:50.438Z,5.78
2023-04-12T22:56:07.264Z,8.80
2023-04-12T22:58:12.518Z,8.93
2023-04-12T23:00:23.614Z,11.63
2023-04-12T23:02:39.900Z,16.25
2023-04-12T23:04:49.081Z,13.35
2023-04-12T23:06:57.979Z,9.52
2023-04-12T23:09:03.322Z,6.60
2023-04-12T23:11:12.136Z,9.00
2023-04-12T23:13:21.035Z,6.53
2023-04-12T23:15:27.311Z,4.93
2023-04-12T23:17:42.175Z,7.22
2023-04-12T23:19:47.971Z,5.57
2023-04-12T23:21:59.400Z,5.45
2023-04-12T23:24:10.337Z,6.38
2023-04-12T23:26:15.855Z,6.85
2023-04-12T23:28:22.126Z,5.38
2023-04-12T23:30:30.399Z,6.43
2023-04-12T23:32:39.333Z,7.60
2023-04-12T23:34:47.180Z,5.55
2023-04-12T23:36:56.622Z,6.43
2023-04-12T23:39:10.839Z,7.25
2023-04-12T23:41:21.358Z,5.40
2023-04-12T23:43:29.725Z,4.95
2023-04-12T23:45:35.182Z,2.78
2023-04-12T23:47:51.875Z,7.35
2023-04-12T23:50:01.328Z,2.25
2023-04-12T23:52:08.301Z,4.25
2023-04-12T23:54:21.617Z,2.78
2023-04-12T23:56:29.537Z,3.10
2023-04-12T23:58:35.159Z,3.67
